sensor_id;sensor_type;location;lat;lon;timestamp;P1;durP1;ratioP1;P2;durP2;ratioP2
3004;SDS011;1512;51.486;6.610;2022-12-18T00:02:52;10.60;;;4.90;;
3004;SDS011;1512;51.486;6.610;2022-12-18T00:07:01;6.57;;;5.27;;
3004;SDS011;1512;51.486;6.610;2022-12-18T00:11:11;8.67;;;5.70;;
3004;SDS011;1512;51.486;6.610;2022-12-18T00:15:22;5.30;;;3.93;;
3004;SDS011;1512;51.486;6.610;2022-12-18T00:19:31;6.97;;;5.33;;
3004;SDS011;1512;51.486;6.610;2022-12-18T00:28:07;6.00;;;5.20;;
3004;SDS011;1512;51.486;6.610;2022-12-18T00:32:16;6.60;;;5.53;;
3004;SDS011;1512;51.486;6.610;2022-12-18T00:36:26;10.63;;;4.80;;
3004;SDS011;1512;51.486;6.610;2022-12-18T00:40:36;6.53;;;3.87;;
3004;SDS011;1512;51.486;6.610;2022-12-18T00:44:45;5.43;;;4.93;;
3004;SDS011;1512;51.486;6.610;2022-12-18T00:48:53;6.77;;;3.27;;
3004;SDS011;1512;51.486;6.610;2022-12-18T00:57:30;10.80;;;4.70;;
3004;SDS011;1512;51.486;6.610;2022-12-18T01:01:39;4.83;;;4.33;;
3004;SDS011;1512;51.486;6.610;2022-12-18T01:05:47;7.63;;;4.33;;
3004;SDS011;1512;51.486;6.610;2022-12-18T01:09:56;8.17;;;5.10;;
3004;SDS011;1512;51.486;6.610;2022-12-18T01:14:05;7.70;;;4.80;;
3004;SDS011;1512;51.486;6.610;2022-12-18T01:18:14;10.70;;;5.70;;
3004;SDS011;1512;51.486;6.610;2022-12-18T01:31:20;6.83;;;4.63;;
3004;SDS011;1512;51.486;6.610;2022-12-18T01:39:52;6.53;;;4.23;;
3004;SDS011;1512;51.486;6.610;2022-12-18T01:44:01;5.13;;;4.30;;
3004;SDS011;1512;51.486;6.610;2022-12-18T01:48:11;6.00;;;4.50;;
3004;SDS011;1512;51.486;6.610;2022-12-18T01:52:20;6.57;;;5.97;;
3004;SDS011;1512;51.486;6.610;2022-12-18T01:56:31;12.60;;;4.70;;
3004;SDS011;1512;51.486;6.610;2022-12-18T02:00:40;5.77;;;4.57;;
3004;SDS011;1512;51.486;6.610;2022-12-18T02:04:49;7.33;;;5.63;;
3004;SDS011;1512;51.486;6.610;2022-12-18T02:13:19;11.33;;;4.87;;
3004;SDS011;1512;51.486;6.610;2022-12-18T02:17:48;8.37;;;5.00;;
3004;SDS011;1512;51.486;6.610;2022-12-18T02:31:17;4.97;;;4.23;;
3004;SDS011;1512;51.486;6.610;2022-12-18T02:35:27;5.10;;;3.80;;
3004;SDS011;1512;51.486;6.610;2022-12-18T02:39:38;4.83;;;4.37;;
3004;SDS011;1512;51.486;6.610;2022-12-18T02:43:52;10.33;;;6.20;;
3004;SDS011;1512;51.486;6.610;2022-12-18T02:48:08;7.27;;;4.50;;
3004;SDS011;1512;51.486;6.610;2022-12-18T02:56:59;6.30;;;4.57;;
3004;SDS011;1512;51.486;6.610;2022-12-18T03:01:20;8.43;;;5.00;;
3004;SDS011;1512;51.486;6.610;2022-12-18T03:05:53;6.10;;;4.90;;
3004;SDS011;1512;51.486;6.610;2022-12-18T03:10:03;7.33;;;4.37;;
3004;SDS011;1512;51.486;6.610;2022-12-18T03:14:15;5.40;;;3.33;;
3004;SDS011;1512;51.486;6.610;2022-12-18T03:18:30;6.90;;;5.30;;
3004;SDS011;1512;51.486;6.610;2022-12-18T03:22:44;7.93;;;5.10;;
3004;SDS011;1512;51.486;6.610;2022-12-18T03:26:57;11.73;;;4.87;;
3004;SDS011;1512;51.486;6.610;2022-12-18T03:31:07;6.00;;;5.07;;
3004;SDS011;1512;51.486;6.610;2022-12-18T03:39:39;8.93;;;7.10;;
3004;SDS011;1512;51.486;6.610;2022-12-18T03:44:03;6.37;;;4.57;;
3004;SDS011;1512;51.486;6.610;2022-12-18T03:48:19;2.90;;;2.70;;
3004;SDS011;1512;51.486;6.610;2022-12-18T03:52:56;11.80;;;6.80;;
3004;SDS011;1512;51.486;6.610;2022-12-18T03:57:21;5.67;;;4.03;;
3004;SDS011;1512;51.486;6.610;2022-12-18T04:01:37;5.30;;;4.80;;
3004;SDS011;1512;51.486;6.610;2022-12-18T04:10:15;9.93;;;5.90;;
3004;SDS011;1512;51.486;6.610;2022-12-18T04:14:24;6.13;;;5.53;;
3004;SDS011;1512;51.486;6.610;2022-12-18T04:18:33;6.50;;;5.37;;
3004;SDS011;1512;51.486;6.610;2022-12-18T04:22:42;7.43;;;5.23;;
3004;SDS011;1512;51.486;6.610;2022-12-18T04:26:52;6.43;;;4.63;;
3004;SDS011;1512;51.486;6.610;2022-12-18T04:31:00;12.27;;;5.27;;
3004;SDS011;1512;51.486;6.610;2022-12-18T04:35:09;7.00;;;6.30;;
3004;SDS011;1512;51.486;6.610;2022-12-18T04:39:18;8.93;;;5.37;;
3004;SDS011;1512;51.486;6.610;2022-12-18T04:43:27;15.83;;;6.93;;
3004;SDS011;1512;51.486;6.610;2022-12-18T04:47:36;6.87;;;6.20;;
3004;SDS011;1512;51.486;6.610;2022-12-18T04:51:51;7.73;;;6.37;;
3004;SDS011;1512;51.486;6.610;2022-12-18T04:56:03;9.77;;;5.87;;
3004;SDS011;1512;51.486;6.610;2022-12-18T05:00:17;12.93;;;6.10;;
3004;SDS011;1512;51.486;6.610;2022-12-18T05:04:26;16.37;;;5.30;;
3004;SDS011;1512;51.486;6.610;2022-12-18T05:08:34;10.83;;;5.27;;
3004;SDS011;1512;51.486;6.610;2022-12-18T05:12:54;8.57;;;6.23;;
3004;SDS011;1512;51.486;6.610;2022-12-18T05:17:07;5.10;;;4.70;;
3004;SDS011;1512;51.486;6.610;2022-12-18T05:21:16;9.07;;;5.43;;
3004;SDS011;1512;51.486;6.610;2022-12-18T05:25:24;9.27;;;5.17;;
3004;SDS011;1512;51.486;6.610;2022-12-18T05:29:33;8.60;;;4.93;;
3004;SDS011;1512;51.486;6.610;2022-12-18T05:38:00;9.30;;;6.37;;
3004;SDS011;1512;51.486;6.610;2022-12-18T05:42:09;5.60;;;4.80;;
3004;SDS011;1512;51.486;6.610;2022-12-18T05:46:18;7.10;;;4.50;;
3004;SDS011;1512;51.486;6.610;2022-12-18T05:50:26;5.60;;;4.20;;
3004;SDS011;1512;51.486;6.610;2022-12-18T05:54:35;8.70;;;3.70;;
3004;SDS011;1512;51.486;6.610;2022-12-18T05:58:44;4.93;;;3.30;;
3004;SDS011;1512;51.486;6.610;2022-12-18T06:02:53;5.53;;;4.60;;
3004;SDS011;1512;51.486;6.610;2022-12-18T06:07:02;6.30;;;5.60;;
3004;SDS011;1512;51.486;6.610;2022-12-18T06:15:39;5.97;;;4.53;;
3004;SDS011;1512;51.486;6.610;2022-12-18T06:19:48;5.30;;;4.80;;
3004;SDS011;1512;51.486;6.610;2022-12-18T06:23:57;6.97;;;5.03;;
3004;SDS011;1512;51.486;6.610;2022-12-18T06:28:06;4.80;;;3.70;;
3004;SDS011;1512;51.486;6.610;2022-12-18T06:32:14;4.83;;;4.40;;
3004;SDS011;1512;51.486;6.610;2022-12-18T06:36:23;5.43;;;4.33;;
3004;SDS011;1512;51.486;6.610;2022-12-18T06:40:32;3.60;;;3.27;;
3004;SDS011;1512;51.486;6.610;2022-12-18T06:44:40;7.50;;;5.17;;
3004;SDS011;1512;51.486;6.610;2022-12-18T06:48:49;3.07;;;2.50;;
3004;SDS011;1512;51.486;6.610;2022-12-18T06:52:58;4.47;;;4.00;;
3004;SDS011;1512;51.486;6.610;2022-12-18T06:57:08;4.23;;;3.90;;
3004;SDS011;1512;51.486;6.610;2022-12-18T07:01:16;4.53;;;4.10;;
3004;SDS011;1512;51.486;6.610;2022-12-18T07:05:25;6.93;;;5.40;;
3004;SDS011;1512;51.486;6.610;2022-12-18T07:09:34;6.53;;;4.60;;
3004;SDS011;1512;51.486;6.610;2022-12-18T07:13:43;5.00;;;4.43;;
3004;SDS011;1512;51.486;6.610;2022-12-18T07:17:52;5.83;;;3.97;;
3004;SDS011;1512;51.486;6.610;2022-12-18T07:22:01;7.17;;;5.70;;
3004;SDS011;1512;51.486;6.610;2022-12-18T07:26:11;5.50;;;3.70;;
3004;SDS011;1512;51.486;6.610;2022-12-18T07:30:21;7.47;;;4.47;;
3004;SDS011;1512;51.486;6.610;2022-12-18T07:34:29;5.50;;;5.00;;
3004;SDS011;1512;51.486;6.610;2022-12-18T07:38:38;7.17;;;3.70;;
3004;SDS011;1512;51.486;6.610;2022-12-18T07:42:47;5.17;;;3.87;;
3004;SDS011;1512;51.486;6.610;2022-12-18T07:51:23;6.37;;;4.90;;
3004;SDS011;1512;51.486;6.610;2022-12-18T07:55:32;4.10;;;3.70;;
3004;SDS011;1512;51.486;6.610;2022-12-18T07:59:43;5.40;;;4.27;;
3004;SDS011;1512;51.486;6.610;2022-12-18T08:08:19;8.53;;;5.30;;
3004;SDS011;1512;51.486;6.610;2022-12-18T08:12:28;9.80;;;4.33;;
3004;SDS011;1512;51.486;6.610;2022-12-18T08:16:36;7.83;;;5.13;;
3004;SDS011;1512;51.486;6.610;2022-12-18T08:20:45;8.30;;;4.63;;
3004;SDS011;1512;51.486;6.610;2022-12-18T08:24:54;7.33;;;6.20;;
3004;SDS011;1512;51.486;6.610;2022-12-18T08:29:02;7.07;;;5.60;;
3004;SDS011;1512;51.486;6.610;2022-12-18T08:33:11;9.07;;;5.37;;
3004;SDS011;1512;51.486;6.610;2022-12-18T08:37:19;6.63;;;5.80;;
3004;SDS011;1512;51.486;6.610;2022-12-18T08:41:28;9.03;;;5.67;;
3004;SDS011;1512;51.486;6.610;2022-12-18T08:45:37;12.87;;;7.40;;
3004;SDS011;1512;51.486;6.610;2022-12-18T08:49:45;14.60;;;7.50;;
3004;SDS011;1512;51.486;6.610;2022-12-18T08:53:54;9.90;;;5.40;;
3004;SDS011;1512;51.486;6.610;2022-12-18T08:58:02;9.50;;;7.62;;
3004;SDS011;1512;51.486;6.610;2022-12-18T09:02:11;7.40;;;6.30;;
3004;SDS011;1512;51.486;6.610;2022-12-18T09:06:20;6.30;;;5.20;;
3004;SDS011;1512;51.486;6.610;2022-12-18T09:10:30;6.77;;;5.73;;
3004;SDS011;1512;51.486;6.610;2022-12-18T09:14:39;8.43;;;6.75;;
3004;SDS011;1512;51.486;6.610;2022-12-18T09:18:48;8.20;;;4.87;;
3004;SDS011;1512;51.486;6.610;2022-12-18T09:22:56;9.33;;;6.80;;
3004;SDS011;1512;51.486;6.610;2022-12-18T09:27:05;5.13;;;4.37;;
3004;SDS011;1512;51.486;6.610;2022-12-18T09:31:14;8.20;;;4.80;;
3004;SDS011;1512;51.486;6.610;2022-12-18T09:35:23;14.63;;;6.37;;
3004;SDS011;1512;51.486;6.610;2022-12-18T09:39:32;8.10;;;4.73;;
3004;SDS011;1512;51.486;6.610;2022-12-18T09:43:49;6.47;;;4.33;;
3004;SDS011;1512;51.486;6.610;2022-12-18T09:47:55;9.87;;;5.60;;
3004;SDS011;1512;51.486;6.610;2022-12-18T09:52:08;5.00;;;4.23;;
3004;SDS011;1512;51.486;6.610;2022-12-18T10:05:03;12.30;;;7.70;;
3004;SDS011;1512;51.486;6.610;2022-12-18T10:09:18;7.93;;;5.87;;
3004;SDS011;1512;51.486;6.610;2022-12-18T10:13:46;12.17;;;6.83;;
3004;SDS011;1512;51.486;6.610;2022-12-18T10:18:00;9.73;;;6.53;;
3004;SDS011;1512;51.486;6.610;2022-12-18T10:22:19;11.83;;;5.73;;
3004;SDS011;1512;51.486;6.610;2022-12-18T10:26:31;12.60;;;7.20;;
3004;SDS011;1512;51.486;6.610;2022-12-18T10:30:40;10.00;;;6.53;;
3004;SDS011;1512;51.486;6.610;2022-12-18T10:34:51;9.43;;;6.60;;
3004;SDS011;1512;51.486;6.610;2022-12-18T10:39:19;13.57;;;7.63;;
3004;SDS011;1512;51.486;6.610;2022-12-18T10:43:31;9.13;;;4.90;;
3004;SDS011;1512;51.486;6.610;2022-12-18T10:47:46;11.80;;;7.10;;
3004;SDS011;1512;51.486;6.610;2022-12-18T10:56:20;10.40;;;7.00;;
3004;SDS011;1512;51.486;6.610;2022-12-18T11:00:30;9.90;;;6.30;;
3004;SDS011;1512;51.486;6.610;2022-12-18T11:04:49;8.90;;;6.27;;
3004;SDS011;1512;51.486;6.610;2022-12-18T11:08:59;9.83;;;6.43;;
3004;SDS011;1512;51.486;6.610;2022-12-18T11:13:12;11.73;;;6.30;;
3004;SDS011;1512;51.486;6.610;2022-12-18T11:17:25;10.20;;;5.40;;
3004;SDS011;1512;51.486;6.610;2022-12-18T11:21:38;6.87;;;6.07;;
3004;SDS011;1512;51.486;6.610;2022-12-18T11:25:52;12.63;;;6.83;;
3004;SDS011;1512;51.486;6.610;2022-12-18T11:30:28;8.53;;;5.37;;
3004;SDS011;1512;51.486;6.610;2022-12-18T11:34:27;9.40;;;5.73;;
3004;SDS011;1512;51.486;6.610;2022-12-18T11:38:41;7.90;;;6.00;;
3004;SDS011;1512;51.486;6.610;2022-12-18T11:42:54;9.70;;;6.93;;
3004;SDS011;1512;51.486;6.610;2022-12-18T11:47:13;7.30;;;5.80;;
3004;SDS011;1512;51.486;6.610;2022-12-18T11:51:22;11.77;;;5.80;;
3004;SDS011;1512;51.486;6.610;2022-12-18T12:00:07;8.27;;;5.40;;
3004;SDS011;1512;51.486;6.610;2022-12-18T12:13:15;6.83;;;5.60;;
3004;SDS011;1512;51.486;6.610;2022-12-18T12:21:52;11.07;;;7.23;;
3004;SDS011;1512;51.486;6.610;2022-12-18T12:30:41;17.40;;;7.40;;
3004;SDS011;1512;51.486;6.610;2022-12-18T12:39:18;18.77;;;6.73;;
3004;SDS011;1512;51.486;6.610;2022-12-18T12:43:31;11.57;;;7.27;;
3004;SDS011;1512;51.486;6.610;2022-12-18T12:47:46;11.97;;;8.20;;
3004;SDS011;1512;51.486;6.610;2022-12-18T12:52:05;12.50;;;7.55;;
3004;SDS011;1512;51.486;6.610;2022-12-18T12:56:16;9.90;;;7.13;;
3004;SDS011;1512;51.486;6.610;2022-12-18T13:00:26;15.80;;;7.57;;
3004;SDS011;1512;51.486;6.610;2022-12-18T13:04:41;12.77;;;7.77;;
3004;SDS011;1512;51.486;6.610;2022-12-18T13:13:20;8.70;;;6.83;;
3004;SDS011;1512;51.486;6.610;2022-12-18T13:17:30;13.17;;;7.47;;
3004;SDS011;1512;51.486;6.610;2022-12-18T13:21:39;9.50;;;7.30;;
3004;SDS011;1512;51.486;6.610;2022-12-18T13:25:53;7.93;;;5.53;;
3004;SDS011;1512;51.486;6.610;2022-12-18T13:29:59;11.90;;;8.20;;
3004;SDS011;1512;51.486;6.610;2022-12-18T13:34:18;9.80;;;7.30;;
3004;SDS011;1512;51.486;6.610;2022-12-18T13:38:33;11.90;;;8.20;;
3004;SDS011;1512;51.486;6.610;2022-12-18T13:42:43;19.77;;;8.27;;
3004;SDS011;1512;51.486;6.610;2022-12-18T13:47:45;12.27;;;8.07;;
3004;SDS011;1512;51.486;6.610;2022-12-18T13:56:01;14.13;;;7.90;;
3004;SDS011;1512;51.486;6.610;2022-12-18T14:00:27;13.40;;;7.70;;
3004;SDS011;1512;51.486;6.610;2022-12-18T14:04:37;9.40;;;6.70;;
3004;SDS011;1512;51.486;6.610;2022-12-18T14:08:46;15.37;;;9.33;;
3004;SDS011;1512;51.486;6.610;2022-12-18T14:12:57;12.60;;;9.00;;
3004;SDS011;1512;51.486;6.610;2022-12-18T14:17:10;15.87;;;9.77;;
3004;SDS011;1512;51.486;6.610;2022-12-18T14:21:25;12.50;;;8.87;;
3004;SDS011;1512;51.486;6.610;2022-12-18T14:25:32;18.80;;;8.83;;
3004;SDS011;1512;51.486;6.610;2022-12-18T14:29:41;19.67;;;10.77;;
3004;SDS011;1512;51.486;6.610;2022-12-18T14:33:51;14.13;;;8.90;;
3004;SDS011;1512;51.486;6.610;2022-12-18T14:42:29;18.10;;;9.20;;
3004;SDS011;1512;51.486;6.610;2022-12-18T14:46:39;11.90;;;7.57;;
3004;SDS011;1512;51.486;6.610;2022-12-18T14:51:04;14.50;;;9.17;;
3004;SDS011;1512;51.486;6.610;2022-12-18T14:55:16;16.00;;;9.90;;
3004;SDS011;1512;51.486;6.610;2022-12-18T15:03:54;18.80;;;10.97;;
3004;SDS011;1512;51.486;6.610;2022-12-18T15:08:24;13.27;;;9.07;;
3004;SDS011;1512;51.486;6.610;2022-12-18T15:12:32;15.80;;;11.43;;
3004;SDS011;1512;51.486;6.610;2022-12-18T15:16:42;14.70;;;8.67;;
3004;SDS011;1512;51.486;6.610;2022-12-18T15:20:59;14.35;;;8.70;;
3004;SDS011;1512;51.486;6.610;2022-12-18T15:29:41;19.27;;;11.43;;
3004;SDS011;1512;51.486;6.610;2022-12-18T15:38:11;10.97;;;9.60;;
3004;SDS011;1512;51.486;6.610;2022-12-18T15:42:19;17.03;;;10.30;;
3004;SDS011;1512;51.486;6.610;2022-12-18T15:46:46;16.55;;;9.50;;
3004;SDS011;1512;51.486;6.610;2022-12-18T15:50:56;17.00;;;11.47;;
3004;SDS011;1512;51.486;6.610;2022-12-18T15:55:09;13.03;;;9.10;;
3004;SDS011;1512;51.486;6.610;2022-12-18T15:59:37;14.53;;;9.50;;
3004;SDS011;1512;51.486;6.610;2022-12-18T16:03:46;20.40;;;9.20;;
3004;SDS011;1512;51.486;6.610;2022-12-18T16:07:55;15.83;;;9.47;;
3004;SDS011;1512;51.486;6.610;2022-12-18T16:16:32;16.20;;;10.10;;
3004;SDS011;1512;51.486;6.610;2022-12-18T16:20:41;19.10;;;10.00;;
3004;SDS011;1512;51.486;6.610;2022-12-18T16:24:50;12.13;;;9.67;;
3004;SDS011;1512;51.486;6.610;2022-12-18T16:28:59;11.70;;;9.17;;
3004;SDS011;1512;51.486;6.610;2022-12-18T16:33:09;13.93;;;10.47;;
3004;SDS011;1512;51.486;6.610;2022-12-18T16:37:18;15.13;;;10.37;;
3004;SDS011;1512;51.486;6.610;2022-12-18T16:41:26;17.30;;;11.27;;
3004;SDS011;1512;51.486;6.610;2022-12-18T16:45:38;15.30;;;9.50;;
3004;SDS011;1512;51.486;6.610;2022-12-18T16:49:46;14.03;;;9.30;;
3004;SDS011;1512;51.486;6.610;2022-12-18T16:53:56;24.13;;;12.90;;
3004;SDS011;1512;51.486;6.610;2022-12-18T16:58:05;17.93;;;11.70;;
3004;SDS011;1512;51.486;6.610;2022-12-18T17:02:23;21.27;;;11.33;;
3004;SDS011;1512;51.486;6.610;2022-12-18T17:06:31;15.80;;;10.83;;
3004;SDS011;1512;51.486;6.610;2022-12-18T17:10:41;19.20;;;10.80;;
3004;SDS011;1512;51.486;6.610;2022-12-18T17:14:50;20.47;;;10.27;;
3004;SDS011;1512;51.486;6.610;2022-12-18T17:18:58;16.90;;;10.30;;
3004;SDS011;1512;51.486;6.610;2022-12-18T17:23:07;19.97;;;9.87;;
3004;SDS011;1512;51.486;6.610;2022-12-18T17:27:16;20.30;;;13.17;;
3004;SDS011;1512;51.486;6.610;2022-12-18T17:31:25;15.43;;;11.17;;
3004;SDS011;1512;51.486;6.610;2022-12-18T17:35:36;20.63;;;10.23;;
3004;SDS011;1512;51.486;6.610;2022-12-18T17:39:44;22.60;;;11.37;;
3004;SDS011;1512;51.486;6.610;2022-12-18T17:43:59;17.07;;;11.50;;
3004;SDS011;1512;51.486;6.610;2022-12-18T17:48:05;16.20;;;10.00;;
3004;SDS011;1512;51.486;6.610;2022-12-18T17:52:15;20.17;;;11.77;;
3004;SDS011;1512;51.486;6.610;2022-12-18T17:56:23;16.27;;;9.83;;
3004;SDS011;1512;51.486;6.610;2022-12-18T18:00:33;16.87;;;12.20;;
3004;SDS011;1512;51.486;6.610;2022-12-18T18:04:42;19.60;;;11.87;;
3004;SDS011;1512;51.486;6.610;2022-12-18T18:08:50;16.90;;;10.77;;
3004;SDS011;1512;51.486;6.610;2022-12-18T18:13:03;18.23;;;11.33;;
3004;SDS011;1512;51.486;6.610;2022-12-18T18:17:30;34.43;;;13.30;;
3004;SDS011;1512;51.486;6.610;2022-12-18T18:21:40;11.60;;;9.00;;
3004;SDS011;1512;51.486;6.610;2022-12-18T18:25:50;17.47;;;11.50;;
3004;SDS011;1512;51.486;6.610;2022-12-18T18:29:59;23.17;;;12.63;;
3004;SDS011;1512;51.486;6.610;2022-12-18T18:34:15;26.63;;;13.77;;
3004;SDS011;1512;51.486;6.610;2022-12-18T18:42:54;16.63;;;11.07;;
3004;SDS011;1512;51.486;6.610;2022-12-18T18:47:03;25.73;;;11.63;;
3004;SDS011;1512;51.486;6.610;2022-12-18T18:51:14;26.07;;;12.40;;
3004;SDS011;1512;51.486;6.610;2022-12-18T18:55:26;20.20;;;13.83;;
3004;SDS011;1512;51.486;6.610;2022-12-18T18:59:35;20.00;;;11.67;;
3004;SDS011;1512;51.486;6.610;2022-12-18T19:03:43;20.60;;;13.33;;
3004;SDS011;1512;51.486;6.610;2022-12-18T19:07:54;17.13;;;11.80;;
3004;SDS011;1512;51.486;6.610;2022-12-18T19:12:02;26.93;;;13.60;;
3004;SDS011;1512;51.486;6.610;2022-12-18T19:21:28;20.90;;;11.03;;
3004;SDS011;1512;51.486;6.610;2022-12-18T19:25:39;20.23;;;11.40;;
3004;SDS011;1512;51.486;6.610;2022-12-18T19:34:17;19.50;;;14.20;;
3004;SDS011;1512;51.486;6.610;2022-12-18T19:42:54;15.30;;;11.83;;
3004;SDS011;1512;51.486;6.610;2022-12-18T19:47:03;25.60;;;12.97;;
3004;SDS011;1512;51.486;6.610;2022-12-18T19:51:19;11.37;;;7.90;;
3004;SDS011;1512;51.486;6.610;2022-12-18T19:55:29;18.77;;;14.80;;
3004;SDS011;1512;51.486;6.610;2022-12-18T19:59:38;19.93;;;11.77;;
3004;SDS011;1512;51.486;6.610;2022-12-18T20:03:47;24.23;;;10.30;;
3004;SDS011;1512;51.486;6.610;2022-12-18T20:07:57;28.67;;;13.57;;
3004;SDS011;1512;51.486;6.610;2022-12-18T20:12:06;21.70;;;11.50;;
3004;SDS011;1512;51.486;6.610;2022-12-18T20:16:15;24.30;;;14.80;;
3004;SDS011;1512;51.486;6.610;2022-12-18T20:20:23;14.90;;;11.03;;
3004;SDS011;1512;51.486;6.610;2022-12-18T20:24:32;27.70;;;12.53;;
3004;SDS011;1512;51.486;6.610;2022-12-18T20:33:09;26.20;;;13.10;;
3004;SDS011;1512;51.486;6.610;2022-12-18T20:41:39;24.90;;;12.10;;
3004;SDS011;1512;51.486;6.610;2022-12-18T20:45:48;21.57;;;13.90;;
3004;SDS011;1512;51.486;6.610;2022-12-18T20:49:57;18.13;;;11.70;;
3004;SDS011;1512;51.486;6.610;2022-12-18T20:54:06;29.70;;;13.63;;
3004;SDS011;1512;51.486;6.610;2022-12-18T20:58:16;23.57;;;14.05;;
3004;SDS011;1512;51.486;6.610;2022-12-18T21:02:25;25.50;;;12.57;;
3004;SDS011;1512;51.486;6.610;2022-12-18T21:06:34;29.33;;;14.07;;
3004;SDS011;1512;51.486;6.610;2022-12-18T21:10:43;28.57;;;13.13;;
3004;SDS011;1512;51.486;6.610;2022-12-18T21:14:52;25.40;;;13.53;;
3004;SDS011;1512;51.486;6.610;2022-12-18T21:19:01;26.80;;;12.47;;
3004;SDS011;1512;51.486;6.610;2022-12-18T21:23:10;23.70;;;14.00;;
3004;SDS011;1512;51.486;6.610;2022-12-18T21:27:20;19.00;;;11.00;;
3004;SDS011;1512;51.486;6.610;2022-12-18T21:31:31;19.40;;;13.73;;
3004;SDS011;1512;51.486;6.610;2022-12-18T21:35:42;17.23;;;11.23;;
3004;SDS011;1512;51.486;6.610;2022-12-18T21:39:50;19.30;;;12.27;;
3004;SDS011;1512;51.486;6.610;2022-12-18T21:48:27;23.77;;;12.83;;
3004;SDS011;1512;51.486;6.610;2022-12-18T21:52:36;25.17;;;11.80;;
3004;SDS011;1512;51.486;6.610;2022-12-18T21:56:51;29.90;;;15.17;;
3004;SDS011;1512;51.486;6.610;2022-12-18T22:01:04;19.70;;;13.10;;
3004;SDS011;1512;51.486;6.610;2022-12-18T22:05:13;25.23;;;11.93;;
3004;SDS011;1512;51.486;6.610;2022-12-18T22:09:23;25.33;;;14.20;;
3004;SDS011;1512;51.486;6.610;2022-12-18T22:13:32;30.63;;;12.00;;
3004;SDS011;1512;51.486;6.610;2022-12-18T22:17:40;21.70;;;12.57;;
3004;SDS011;1512;51.486;6.610;2022-12-18T22:21:49;19.20;;;9.60;;
3004;SDS011;1512;51.486;6.610;2022-12-18T22:26:00;24.37;;;12.23;;
3004;SDS011;1512;51.486;6.610;2022-12-18T22:30:09;21.60;;;11.33;;
3004;SDS011;1512;51.486;6.610;2022-12-18T22:34:20;22.40;;;10.23;;
3004;SDS011;1512;51.486;6.610;2022-12-18T22:38:29;21.23;;;11.43;;
3004;SDS011;1512;51.486;6.610;2022-12-18T22:42:37;26.87;;;12.53;;
3004;SDS011;1512;51.486;6.610;2022-12-18T23:00:12;29.20;;;13.53;;
3004;SDS011;1512;51.486;6.610;2022-12-18T23:08:51;25.83;;;14.17;;
3004;SDS011;1512;51.486;6.610;2022-12-18T23:17:30;20.20;;;11.63;;
3004;SDS011;1512;51.486;6.610;2022-12-18T23:21:39;20.00;;;11.00;;
3004;SDS011;1512;51.486;6.610;2022-12-18T23:25:47;19.30;;;14.00;;
3004;SDS011;1512;51.486;6.610;2022-12-18T23:29:56;25.43;;;11.43;;
3004;SDS011;1512;51.486;6.610;2022-12-18T23:34:05;20.43;;;11.20;;
3004;SDS011;1512;51.486;6.610;2022-12-18T23:38:14;21.27;;;11.07;;
3004;SDS011;1512;51.486;6.610;2022-12-18T23:46:51;18.63;;;12.10;;
3004;SDS011;1512;51.486;6.610;2022-12-18T23:51:03;28.43;;;14.73;;
3004;SDS011;1512;51.486;6.610;2022-12-18T23:55:14;22.07;;;10.20;;
3004;SDS011;1512;51.486;6.610;2022-12-18T23:59:22;28.93;;;13.00;;
